createdAt,value
2019-01-30T00:00:34.496Z,99198.30
2019-01-30T00:01:40.045Z,99198.30
2019-01-30T00:02:45.010Z,99195.31
2019-01-30T00:03:50.255Z,99192.31
2019-01-30T00:04:55.207Z,99188.52
2019-01-30T00:06:00.203Z,99186.84
2019-01-30T00:07:05.965Z,99185.67
2019-01-30T00:08:11.025Z,99186.62
2019-01-30T00:09:16.338Z,99183.99
2019-01-30T00:10:21.239Z,99186.14
2019-01-30T00:11:26.240Z,99181.98
2019-01-30T00:12:31.198Z,99181.98
2019-01-30T00:13:36.503Z,99178.99
2019-01-30T00:14:41.710Z,99181.98
2019-01-30T00:15:56.098Z,99176.37
2019-01-30T00:16:53.715Z,99175.05
2019-01-30T00:17:58.692Z,99177.78
2019-01-30T00:19:03.741Z,99174.22
2019-01-30T00:20:09.449Z,99174.69
2019-01-30T00:21:14.437Z,99174.36
2019-01-30T00:22:20.447Z,99170.05
2019-01-30T00:23:25.356Z,99166.59
2019-01-30T00:24:30.874Z,99173.62
2019-01-30T00:25:35.860Z,99170.52
2019-01-30T00:26:40.730Z,99169.83
2019-01-30T00:27:46.047Z,99160.75
2019-01-30T00:28:51.347Z,99167.92
2019-01-30T00:30:03.813Z,99163.63
2019-01-30T00:31:03.000Z,99166.61
2019-01-30T00:32:07.975Z,99167.92
2019-01-30T00:33:12.992Z,99161.00
2019-01-30T00:34:17.971Z,99167.09
2019-01-30T00:35:23.494Z,99168.40
2019-01-30T00:36:29.077Z,99157.42
2019-01-30T00:37:33.963Z,99161.36
2019-01-30T00:38:38.961Z,99154.06
2019-01-30T00:39:43.852Z,99156.69
2019-01-30T00:40:48.772Z,99149.66
2019-01-30T00:41:53.682Z,99154.91
2019-01-30T00:42:59.271Z,99154.06
2019-01-30T00:44:04.463Z,99149.80
2019-01-30T00:45:11.674Z,99150.13
2019-01-30T00:46:19.459Z,99154.91
2019-01-30T00:47:24.387Z,99149.29
2019-01-30T00:48:29.615Z,99145.86
2019-01-30T00:49:34.590Z,99146.81
2019-01-30T00:50:39.552Z,99143.82
2019-01-30T00:51:44.450Z,99146.45
2019-01-30T00:52:49.509Z,99144.30
2019-01-30T00:53:54.398Z,99146.11
2019-01-30T00:54:59.633Z,99146.11
2019-01-30T00:56:05.117Z,99146.45
2019-01-30T00:57:10.285Z,99143.82
2019-01-30T00:58:15.253Z,99146.45
2019-01-30T00:59:20.230Z,99149.07
2019-01-30T01:00:25.840Z,99137.50
2019-01-30T01:01:30.801Z,99141.92
2019-01-30T01:02:35.799Z,99130.25
2019-01-30T01:03:40.860Z,99135.60
2019-01-30T01:04:45.905Z,99135.74
2019-01-30T01:05:51.372Z,99130.97
2019-01-30T01:06:56.650Z,99124.87
2019-01-30T01:08:01.696Z,99128.12
2019-01-30T01:09:10.438Z,99127.28
2019-01-30T01:10:16.493Z,99119.52
2019-01-30T01:11:21.488Z,99118.34
2019-01-30T01:12:26.435Z,99120.12
2019-01-30T01:13:31.749Z,99119.40
2019-01-30T01:14:38.335Z,99118.93
2019-01-30T01:15:43.577Z,99115.61
2019-01-30T01:16:48.831Z,99111.30
2019-01-30T01:17:53.741Z,99107.84
2019-01-30T01:18:58.744Z,99107.14
2019-01-30T01:20:04.412Z,99103.68
2019-01-30T01:21:09.912Z,99100.36
2019-01-30T01:22:14.950Z,99099.88
2019-01-30T01:23:20.943Z,99101.30
2019-01-30T01:24:26.189Z,99100.13
2019-01-30T01:25:31.146Z,99097.51
2019-01-30T01:26:36.140Z,99097.98
2019-01-30T01:27:41.656Z,99097.73
2019-01-30T01:28:46.614Z,99089.16
2019-01-30T01:29:51.662Z,99094.04
2019-01-30T01:30:56.737Z,99092.39
2019-01-30T01:32:01.828Z,99094.66
2019-01-30T01:33:06.772Z,99092.03
2019-01-30T01:34:11.964Z,99085.58
2019-01-30T01:35:17.121Z,99081.31
2019-01-30T01:36:22.079Z,99087.50
2019-01-30T01:37:27.305Z,99086.33
2019-01-30T01:38:32.218Z,99082.40
2019-01-30T01:39:37.374Z,99084.18
2019-01-30T01:40:42.966Z,99086.55
2019-01-30T01:41:47.877Z,99080.50
2019-01-30T01:42:52.860Z,99085.23
2019-01-30T01:43:57.769Z,99083.23
2019-01-30T01:45:02.735Z,99076.80
2019-01-30T01:46:07.718Z,99072.51
2019-01-30T01:47:13.001Z,99073.45
2019-01-30T01:48:18.058Z,99075.23
2019-01-30T01:49:23.345Z,99069.52
2019-01-30T01:50:28.906Z,99068.34
2019-01-30T01:51:33.874Z,99067.14
2019-01-30T01:52:39.255Z,99075.85
2019-01-30T01:53:44.498Z,99067.98
2019-01-30T01:54:49.481Z,99062.38
2019-01-30T01:55:54.453Z,99064.16
2019-01-30T01:56:59.364Z,99068.09
2019-01-30T01:58:04.452Z,99066.30
2019-01-30T01:59:09.581Z,99062.52
2019-01-30T02:00:17.331Z,99060.73
2019-01-30T02:01:22.503Z,99058.44
2019-01-30T02:02:27.718Z,99058.11
2019-01-30T02:03:32.800Z,99056.18
2019-01-30T02:04:38.026Z,99049.26
2019-01-30T02:05:43.047Z,99049.48
2019-01-30T02:06:48.283Z,99051.16
2019-01-30T02:07:53.412Z,99049.38
2019-01-30T02:08:58.956Z,99041.50
2019-01-30T02:10:05.872Z,99043.52
2019-01-30T02:11:10.909Z,99035.06
2019-01-30T02:12:15.826Z,99036.23
2019-01-30T02:13:20.737Z,99031.46
2019-01-30T02:14:25.732Z,99032.19
2019-01-30T02:15:30.934Z,99029.93
2019-01-30T02:16:35.791Z,99023.70
2019-01-30T02:17:40.771Z,99027.05
2019-01-30T02:18:46.081Z,99020.83
2019-01-30T02:19:51.068Z,99023.81
2019-01-30T02:20:56.056Z,99024.19
2019-01-30T02:22:00.993Z,99012.38
2019-01-30T02:23:06.592Z,99017.15
2019-01-30T02:24:11.669Z,99016.17
2019-01-30T02:25:17.734Z,99005.09
2019-01-30T02:26:22.658Z,99006.88
2019-01-30T02:27:27.630Z,99008.88
2019-01-30T02:28:32.956Z,99005.31
2019-01-30T02:29:38.422Z,99003.05
2019-01-30T02:30:47.653Z,98996.60
2019-01-30T02:31:50.164Z,98999.11
2019-01-30T02:32:55.461Z,99002.07
2019-01-30T02:34:00.349Z,98996.83
2019-01-30T02:35:05.703Z,98992.89
2019-01-30T02:36:11.173Z,98995.87
2019-01-30T02:37:16.464Z,98989.31
2019-01-30T02:38:21.387Z,98991.09
2019-01-30T02:39:26.713Z,98991.09
2019-01-30T02:40:31.962Z,98990.62
2019-01-30T02:41:36.917Z,98990.62
2019-01-30T02:42:42.091Z,98991.58
2019-01-30T02:43:47.430Z,98989.56
2019-01-30T02:44:52.391Z,98990.52
2019-01-30T02:45:57.338Z,98992.78
2019-01-30T02:47:02.533Z,98989.82
2019-01-30T02:48:07.483Z,98987.67
2019-01-30T02:49:12.474Z,98986.98
2019-01-30T02:50:18.854Z,98987.45
2019-01-30T02:51:23.740Z,98992.81
2019-01-30T02:52:28.690Z,98987.34
2019-01-30T02:53:33.799Z,98986.98
2019-01-30T02:54:38.899Z,98975.79
2019-01-30T02:55:43.861Z,98981.98
2019-01-30T02:56:49.232Z,98981.63
2019-01-30T02:57:54.502Z,98986.53
2019-01-30T02:58:59.426Z,98977.94
2019-01-30T03:00:06.053Z,98980.23
2019-01-30T03:01:10.971Z,98983.44
2019-01-30T03:02:22.466Z,98987.52
2019-01-30T03:03:27.749Z,98977.13
2019-01-30T03:04:32.986Z,98977.75
2019-01-30T03:05:38.015Z,98975.23
2019-01-30T03:06:43.355Z,98980.48
2019-01-30T03:07:48.417Z,98970.97
2019-01-30T03:08:53.332Z,98970.61
2019-01-30T03:09:58.248Z,98970.72
2019-01-30T03:11:03.296Z,98967.77
2019-01-30T03:12:08.540Z,98974.64
2019-01-30T03:13:13.568Z,98967.40
2019-01-30T03:14:18.794Z,98961.78
2019-01-30T03:15:24.474Z,98960.14
2019-01-30T03:16:29.949Z,98959.78
2019-01-30T03:17:35.137Z,98959.41
2019-01-30T03:18:40.362Z,98962.66
2019-01-30T03:19:45.586Z,98956.68
2019-01-30T03:20:50.585Z,98958.13
2019-01-30T03:21:55.602Z,98946.45
2019-01-30T03:23:00.813Z,98953.00
2019-01-30T03:24:05.978Z,98952.66
2019-01-30T03:25:12.195Z,98955.63
2019-01-30T03:26:17.429Z,98952.30
2019-01-30T03:27:23.760Z,98949.68
2019-01-30T03:28:28.640Z,98948.37
2019-01-30T03:29:33.854Z,98948.73
2019-01-30T03:30:38.897Z,98943.59
2019-01-30T03:31:43.882Z,98946.22
2019-01-30T03:32:49.279Z,98941.95
2019-01-30T03:33:54.608Z,98941.13
2019-01-30T03:34:59.502Z,98942.43
2019-01-30T03:36:04.735Z,98942.43
2019-01-30T03:37:09.723Z,98941.59
2019-01-30T03:38:14.714Z,98940.64
2019-01-30T03:39:19.623Z,98945.89
2019-01-30T03:40:28.034Z,98945.38
2019-01-30T03:41:33.056Z,98950.63
2019-01-30T03:42:38.296Z,98941.45
2019-01-30T03:43:43.199Z,98946.70
2019-01-30T03:44:48.135Z,98945.75
2019-01-30T03:45:53.418Z,98945.38
2019-01-30T03:46:58.419Z,98941.81
2019-01-30T03:48:03.399Z,98947.06
2019-01-30T03:49:08.306Z,98941.20
2019-01-30T03:50:13.519Z,98941.20
2019-01-30T03:51:18.707Z,98941.09
2019-01-30T03:52:23.654Z,98938.00
2019-01-30T03:53:28.563Z,98940.47
2019-01-30T03:54:33.535Z,98939.05
2019-01-30T03:55:38.638Z,98940.11
2019-01-30T03:56:43.585Z,98931.77
2019-01-30T03:57:48.618Z,98936.88
2019-01-30T03:58:53.702Z,98932.69
2019-01-30T03:59:59.134Z,98932.22
2019-01-30T04:01:04.308Z,98928.17
2019-01-30T04:02:09.349Z,98927.55
2019-01-30T04:03:14.329Z,98927.08
2019-01-30T04:04:19.488Z,98923.36
2019-01-30T04:05:25.161Z,98925.87
2019-01-30T04:06:30.065Z,98928.83
2019-01-30T04:07:35.054Z,98923.47
2019-01-30T04:08:40.107Z,98918.92
2019-01-30T04:09:45.004Z,98921.44
2019-01-30T04:10:49.906Z,98923.91
2019-01-30T04:11:55.022Z,98919.86
2019-01-30T04:13:00.356Z,98920.56
2019-01-30T04:14:05.552Z,98915.20
2019-01-30T04:15:10.661Z,98921.14
2019-01-30T04:16:15.650Z,98921.50
2019-01-30T04:17:20.628Z,98934.00
2019-01-30T04:18:25.537Z,98926.13
2019-01-30T04:19:30.459Z,98922.20
2019-01-30T04:20:35.466Z,98922.56
2019-01-30T04:21:40.775Z,98925.18
2019-01-30T04:22:46.124Z,98922.08
2019-01-30T04:23:51.061Z,98921.61
2019-01-30T04:24:55.956Z,98924.92
2019-01-30T04:26:00.897Z,98921.94
2019-01-30T04:27:06.160Z,98918.52
2019-01-30T04:28:11.551Z,98914.69
2019-01-30T04:29:16.539Z,98915.52
2019-01-30T04:30:23.592Z,98914.69
2019-01-30T04:31:37.934Z,98918.15
2019-01-30T04:32:35.393Z,98915.05
2019-01-30T04:33:40.278Z,98915.38
2019-01-30T04:34:45.240Z,98915.38
2019-01-30T04:35:50.753Z,98915.38
2019-01-30T04:36:55.655Z,98911.80
2019-01-30T04:38:01.246Z,98910.86
2019-01-30T04:39:07.926Z,98914.31
2019-01-30T04:40:15.246Z,98916.47
2019-01-30T04:41:20.287Z,98915.16
2019-01-30T04:42:34.382Z,98917.63
2019-01-30T04:43:39.332Z,98916.32
2019-01-30T04:44:44.232Z,98921.09
2019-01-30T04:45:49.262Z,98924.08
2019-01-30T04:46:54.205Z,98922.77
2019-01-30T04:47:59.321Z,98920.84
2019-01-30T04:49:04.423Z,98925.25
2019-01-30T04:50:09.772Z,98923.82
2019-01-30T04:51:15.026Z,98925.97
2019-01-30T04:52:19.963Z,98926.45
2019-01-30T04:53:25.158Z,98925.97
2019-01-30T04:54:30.195Z,98929.40
2019-01-30T04:55:35.118Z,98934.17
2019-01-30T04:56:40.085Z,98931.08
2019-01-30T04:57:45.522Z,98925.83
2019-01-30T04:58:50.729Z,98917.59
2019-01-30T04:59:56.096Z,98919.27
2019-01-30T05:01:00.999Z,98918.91
2019-01-30T05:02:06.420Z,98915.80
2019-01-30T05:03:11.368Z,98921.53
2019-01-30T05:04:16.451Z,98924.16
2019-01-30T05:05:21.627Z,98916.28
2019-01-30T05:06:26.601Z,98913.33
2019-01-30T05:07:31.551Z,98912.13
2019-01-30T05:08:36.460Z,98908.55
2019-01-30T05:09:41.450Z,98913.91
2019-01-30T05:10:46.563Z,98907.35
2019-01-30T05:11:51.456Z,98907.83
2019-01-30T05:12:56.778Z,98904.03
2019-01-30T05:14:02.368Z,98912.38
2019-01-30T05:15:10.189Z,98899.73
2019-01-30T05:16:15.480Z,98894.49
2019-01-30T05:17:20.439Z,98897.11
2019-01-30T05:18:25.372Z,98903.67
2019-01-30T05:19:30.752Z,98903.34
2019-01-30T05:20:35.869Z,98894.02
2019-01-30T05:21:40.998Z,98890.70
2019-01-30T05:22:46.033Z,98891.88
2019-01-30T05:23:51.209Z,98894.49
2019-01-30T05:24:56.428Z,98905.35
2019-01-30T05:26:01.394Z,98898.79
2019-01-30T05:27:06.507Z,98904.40
2019-01-30T05:28:11.464Z,98899.16
2019-01-30T05:29:16.489Z,98903.09
2019-01-30T05:30:27.172Z,98902.11
2019-01-30T05:31:32.187Z,98893.17
2019-01-30T05:32:38.189Z,98893.97
2019-01-30T05:33:43.091Z,98894.34
2019-01-30T05:34:48.497Z,98897.32
2019-01-30T05:35:55.921Z,98896.01
2019-01-30T05:37:01.278Z,98888.97
2019-01-30T05:38:06.336Z,98891.59
2019-01-30T05:39:11.479Z,98891.09
2019-01-30T05:40:17.367Z,98889.45
2019-01-30T05:41:22.215Z,98892.07
2019-01-30T05:42:27.408Z,98891.71
2019-01-30T05:43:32.324Z,98894.70
2019-01-30T05:44:37.271Z,98892.91
2019-01-30T05:45:42.264Z,98892.41
2019-01-30T05:46:47.180Z,98894.08
2019-01-30T05:47:52.589Z,98892.77
2019-01-30T05:48:57.953Z,98890.50
2019-01-30T05:50:03.253Z,98889.66
2019-01-30T05:51:08.644Z,98889.78
2019-01-30T05:52:13.929Z,98888.14
2019-01-30T05:53:18.829Z,98895.53
2019-01-30T05:54:23.759Z,98898.48
2019-01-30T05:55:28.722Z,98893.23
2019-01-30T05:56:33.939Z,98891.45
2019-01-30T05:57:39.215Z,98890.14
2019-01-30T05:58:44.737Z,98890.50
2019-01-30T05:59:49.695Z,98891.34
2019-01-30T06:00:55.053Z,98892.17
2019-01-30T06:01:59.965Z,98890.86
2019-01-30T06:03:05.120Z,98891.34
2019-01-30T06:04:10.188Z,98890.86
2019-01-30T06:05:15.770Z,98889.04
2019-01-30T06:06:20.759Z,98894.66
2019-01-30T06:07:26.340Z,98894.17
2019-01-30T06:08:31.215Z,98895.84
2019-01-30T06:09:36.414Z,98886.78
2019-01-30T06:10:41.530Z,98888.45
2019-01-30T06:11:46.786Z,98884.62
2019-01-30T06:12:51.750Z,98889.55
2019-01-30T06:13:56.735Z,98889.55
2019-01-30T06:15:01.687Z,98886.92
2019-01-30T06:16:06.797Z,98888.56
2019-01-30T06:17:12.128Z,98886.41
2019-01-30T06:18:17.139Z,98885.11
2019-01-30T06:19:22.248Z,98885.61
2019-01-30T06:20:28.298Z,98886.56
2019-01-30T06:21:33.227Z,98886.56
2019-01-30T06:22:38.550Z,98886.56
2019-01-30T06:23:43.425Z,98881.42
2019-01-30T06:24:49.360Z,98876.66
2019-01-30T06:25:54.410Z,98875.85
2019-01-30T06:26:59.429Z,98879.78
2019-01-30T06:28:04.807Z,98882.05
2019-01-30T06:29:09.788Z,98878.95
2019-01-30T06:30:16.398Z,98873.23
2019-01-30T06:31:21.384Z,98874.87
2019-01-30T06:32:26.712Z,98877.86
2019-01-30T06:33:31.674Z,98870.45
2019-01-30T06:34:37.714Z,98870.09
2019-01-30T06:35:43.029Z,98867.47
2019-01-30T06:36:47.941Z,98870.60
2019-01-30T06:37:53.318Z,98860.58
2019-01-30T06:38:58.610Z,98866.30
2019-01-30T06:40:04.003Z,98865.47
2019-01-30T06:41:08.916Z,98858.55
2019-01-30T06:42:14.150Z,98862.99
2019-01-30T06:43:19.161Z,98861.80
2019-01-30T06:44:24.480Z,98862.89
2019-01-30T06:45:29.651Z,98861.22
2019-01-30T06:46:35.021Z,98862.17
2019-01-30T06:47:40.095Z,98859.22
2019-01-30T06:48:45.100Z,98860.17
2019-01-30T06:49:50.613Z,98857.33
2019-01-30T06:50:55.907Z,98862.22
2019-01-30T06:52:01.434Z,98863.16
2019-01-30T06:53:06.977Z,98859.73
2019-01-30T06:54:11.879Z,98863.31
2019-01-30T06:55:16.871Z,98860.22
2019-01-30T06:56:21.779Z,98865.79
2019-01-30T06:57:27.074Z,98866.30
2019-01-30T06:58:32.124Z,98863.16
2019-01-30T06:59:37.021Z,98857.80
2019-01-30T07:00:42.242Z,98862.22
2019-01-30T07:01:47.292Z,98858.97
2019-01-30T07:02:52.961Z,98859.80
2019-01-30T07:03:57.940Z,98855.76
2019-01-30T07:05:02.880Z,98859.22
2019-01-30T07:06:07.986Z,98854.81
2019-01-30T07:07:12.890Z,98856.92
2019-01-30T07:08:17.874Z,98856.45
2019-01-30T07:09:23.212Z,98854.66
2019-01-30T07:10:28.905Z,98856.33
2019-01-30T07:11:34.613Z,98853.23
2019-01-30T07:12:39.691Z,98852.25
2019-01-30T07:13:44.792Z,98851.77
2019-01-30T07:14:49.768Z,98849.16
2019-01-30T07:15:55.139Z,98852.61
2019-01-30T07:17:00.096Z,98852.61
2019-01-30T07:18:05.575Z,98855.92
2019-01-30T07:19:10.579Z,98847.00
2019-01-30T07:20:15.902Z,98854.40
2019-01-30T07:21:21.002Z,98845.69
2019-01-30T07:22:25.955Z,98854.88
2019-01-30T07:23:30.973Z,98853.56
2019-01-30T07:24:36.075Z,98848.67
2019-01-30T07:25:41.282Z,98855.13
2019-01-30T07:26:46.277Z,98847.46
2019-01-30T07:27:51.457Z,98847.79
2019-01-30T07:28:57.067Z,98843.53
2019-01-30T07:30:02.021Z,98845.17
2019-01-30T07:31:07.152Z,98861.75
2019-01-30T07:32:12.042Z,98848.98
2019-01-30T07:33:17.040Z,98850.52
2019-01-30T07:34:21.969Z,98845.62
2019-01-30T07:35:27.413Z,98851.23
2019-01-30T07:36:32.500Z,98855.02
2019-01-30T07:37:38.506Z,98850.61
2019-01-30T07:38:43.593Z,98845.00
2019-01-30T07:39:48.587Z,98851.92
2019-01-30T07:40:53.588Z,98856.22
2019-01-30T07:41:58.796Z,98854.44
2019-01-30T07:43:04.351Z,98859.53
2019-01-30T07:44:09.276Z,98858.11
2019-01-30T07:45:16.050Z,98856.28
2019-01-30T07:46:21.284Z,98855.69
2019-01-30T07:47:26.358Z,98860.80
2019-01-30T07:48:31.794Z,98855.06
2019-01-30T07:49:36.892Z,98860.53
2019-01-30T07:50:42.177Z,98848.59
2019-01-30T07:51:47.165Z,98854.21
2019-01-30T07:52:52.520Z,98854.69
2019-01-30T07:53:57.419Z,98852.89
2019-01-30T07:55:03.389Z,98856.21
2019-01-30T07:56:08.917Z,98858.72
2019-01-30T07:57:14.000Z,98848.22
2019-01-30T07:58:18.935Z,98845.59
2019-01-30T07:59:24.345Z,98857.26
2019-01-30T08:00:33.610Z,98856.30
2019-01-30T08:01:38.943Z,98852.37
2019-01-30T08:02:52.917Z,98846.64
2019-01-30T08:03:50.804Z,98851.27
2019-01-30T08:04:55.709Z,98854.10
2019-01-30T08:06:01.040Z,98851.95
2019-01-30T08:07:06.489Z,98856.25
2019-01-30T08:08:11.977Z,98857.09
2019-01-30T08:09:16.876Z,98856.13
2019-01-30T08:10:21.950Z,98859.71
2019-01-30T08:11:27.061Z,98861.38
2019-01-30T08:12:31.953Z,98863.65
2019-01-30T08:13:36.944Z,98865.08
2019-01-30T08:14:42.094Z,98868.81
2019-01-30T08:15:47.146Z,98866.33
2019-01-30T08:16:52.132Z,98870.02
2019-01-30T08:17:57.376Z,98867.66
2019-01-30T08:19:03.190Z,98868.29
2019-01-30T08:20:10.667Z,98866.29
2019-01-30T08:21:15.759Z,98868.41
2019-01-30T08:22:20.644Z,98866.88
2019-01-30T08:23:26.319Z,98864.87
2019-01-30T08:24:31.806Z,98865.72
2019-01-30T08:25:37.295Z,98866.78
2019-01-30T08:26:42.673Z,98869.08
2019-01-30T08:27:48.479Z,98868.03
2019-01-30T08:28:53.794Z,98867.31
2019-01-30T08:29:58.738Z,98872.97
2019-01-30T08:31:03.793Z,98875.34
2019-01-30T08:32:08.883Z,98873.34
2019-01-30T08:33:13.722Z,98874.30
2019-01-30T08:34:18.703Z,98875.28
2019-01-30T08:35:25.422Z,98876.11
2019-01-30T08:36:30.495Z,98880.05
2019-01-30T08:37:35.521Z,98879.69
2019-01-30T08:38:40.560Z,98883.27
2019-01-30T08:39:45.990Z,98879.80
2019-01-30T08:40:51.013Z,98883.73
2019-01-30T08:41:56.466Z,98882.42
2019-01-30T08:43:01.631Z,98883.41
2019-01-30T08:44:06.695Z,98880.90
2019-01-30T08:45:15.815Z,98879.73
2019-01-30T08:46:20.809Z,98880.80
2019-01-30T08:47:25.878Z,98884.88
2019-01-30T08:48:32.236Z,98881.41
2019-01-30T08:49:37.143Z,98883.09
2019-01-30T08:50:42.238Z,98876.86
2019-01-30T08:51:47.290Z,98876.27
2019-01-30T08:52:52.616Z,98878.16
2019-01-30T08:53:57.665Z,98876.84
2019-01-30T08:55:02.644Z,98878.48
2019-01-30T08:56:07.676Z,98874.55
2019-01-30T08:57:12.713Z,98874.55
2019-01-30T08:58:18.367Z,98876.59
2019-01-30T08:59:23.363Z,98880.52
2019-01-30T09:00:29.226Z,98876.92
2019-01-30T09:01:34.268Z,98882.16
2019-01-30T09:02:39.630Z,98878.38
2019-01-30T09:03:44.788Z,98884.46
2019-01-30T09:04:49.901Z,98884.94
2019-01-30T09:05:55.064Z,98883.27
2019-01-30T09:07:00.071Z,98885.05
2019-01-30T09:08:08.932Z,98886.72
2019-01-30T09:09:14.351Z,98884.09
2019-01-30T09:10:21.361Z,98884.09
2019-01-30T09:11:26.743Z,98883.48
2019-01-30T09:12:31.838Z,98881.58
2019-01-30T09:13:37.107Z,98885.84
2019-01-30T09:14:42.091Z,98889.19
2019-01-30T09:15:47.408Z,98888.56
2019-01-30T09:16:52.670Z,98885.68
2019-01-30T09:17:58.301Z,98887.23
2019-01-30T09:19:03.653Z,98889.36
2019-01-30T09:20:11.807Z,98890.34
2019-01-30T09:21:16.808Z,98890.93
2019-01-30T09:22:21.831Z,98888.45
2019-01-30T09:23:26.887Z,98890.86
2019-01-30T09:24:32.033Z,98887.40
2019-01-30T09:25:37.105Z,98886.67
2019-01-30T09:26:42.267Z,98887.52
2019-01-30T09:27:47.518Z,98890.86
2019-01-30T09:28:52.881Z,98892.39
2019-01-30T09:29:58.731Z,98888.30
2019-01-30T09:31:04.125Z,98887.56
2019-01-30T09:32:09.301Z,98887.45
2019-01-30T09:33:25.552Z,98879.79
2019-01-30T09:34:23.214Z,98880.36
2019-01-30T09:35:28.553Z,98888.72
2019-01-30T09:36:33.596Z,98891.70
2019-01-30T09:37:38.670Z,98885.61
2019-01-30T09:38:43.711Z,98893.48
2019-01-30T09:39:48.747Z,98893.48
2019-01-30T09:40:53.717Z,98890.39
2019-01-30T09:41:59.673Z,98895.64
2019-01-30T09:43:05.321Z,98887.05
2019-01-30T09:44:10.346Z,98889.19
2019-01-30T09:45:16.358Z,98886.45
2019-01-30T09:46:21.252Z,98887.29
2019-01-30T09:47:26.165Z,98887.29
2019-01-30T09:48:31.182Z,98896.47
2019-01-30T09:49:36.442Z,98886.30
2019-01-30T09:50:41.806Z,98891.55
2019-01-30T09:51:46.981Z,98896.80
2019-01-30T09:52:52.739Z,98889.41
2019-01-30T09:53:57.874Z,98889.08
2019-01-30T09:55:02.964Z,98893.23
2019-01-30T09:56:07.928Z,98892.27
2019-01-30T09:57:12.889Z,98891.29
2019-01-30T09:58:17.915Z,98890.34
2019-01-30T09:59:23.084Z,98890.22
2019-01-30T10:00:33.362Z,98894.38
2019-01-30T10:01:38.334Z,98890.08
2019-01-30T10:02:43.626Z,98897.36
2019-01-30T10:03:48.634Z,98896.37
2019-01-30T10:04:53.654Z,98896.05
2019-01-30T10:05:58.865Z,98895.69
2019-01-30T10:07:03.895Z,98899.27
2019-01-30T10:08:09.587Z,98901.05
2019-01-30T10:09:14.871Z,98896.42
2019-01-30T10:10:22.821Z,98896.55
2019-01-30T10:11:27.826Z,98898.84
2019-01-30T10:12:32.920Z,98903.37
2019-01-30T10:13:37.839Z,98902.05
2019-01-30T10:14:43.222Z,98903.37
2019-01-30T10:15:48.611Z,98899.43
2019-01-30T10:16:54.383Z,98899.10
2019-01-30T10:17:59.376Z,98899.69
2019-01-30T10:19:04.761Z,98902.68
2019-01-30T10:20:14.124Z,98906.47
2019-01-30T10:21:19.863Z,98901.47
2019-01-30T10:22:24.793Z,98893.92
2019-01-30T10:23:29.707Z,98897.27
2019-01-30T10:24:34.772Z,98901.20
2019-01-30T10:25:39.893Z,98892.02
2019-01-30T10:26:44.904Z,98892.48
2019-01-30T10:27:49.847Z,98892.60
2019-01-30T10:28:54.841Z,98897.16
2019-01-30T10:29:59.752Z,98891.70
2019-01-30T10:31:05.114Z,98901.00
2019-01-30T10:32:10.505Z,98903.30
2019-01-30T10:33:15.873Z,98900.67
2019-01-30T10:34:20.797Z,98899.00
2019-01-30T10:35:26.413Z,98897.69
2019-01-30T10:36:31.740Z,98888.50
2019-01-30T10:37:36.728Z,98891.81
2019-01-30T10:38:41.673Z,98893.34
2019-01-30T10:39:46.943Z,98892.27
2019-01-30T10:40:51.993Z,98892.02
2019-01-30T10:41:57.370Z,98895.69
2019-01-30T10:43:02.748Z,98890.44
2019-01-30T10:44:08.825Z,98896.37
2019-01-30T10:45:13.965Z,98887.91
2019-01-30T10:46:19.160Z,98894.80
2019-01-30T10:47:24.170Z,98897.42
2019-01-30T10:48:29.590Z,98900.88
2019-01-30T10:49:34.514Z,98897.91
2019-01-30T10:50:39.578Z,98899.09
2019-01-30T10:51:45.005Z,98895.16
2019-01-30T10:52:50.442Z,98898.73
2019-01-30T10:53:55.588Z,98896.37
2019-01-30T10:55:00.601Z,98900.94
2019-01-30T10:56:05.744Z,98897.59
2019-01-30T10:57:10.832Z,98901.67
2019-01-30T10:58:17.740Z,98895.59
2019-01-30T10:59:23.015Z,98895.23
2019-01-30T11:00:33.898Z,98897.85
2019-01-30T11:01:39.221Z,98888.66
2019-01-30T11:02:46.463Z,98893.33
2019-01-30T11:03:57.087Z,98890.44
2019-01-30T11:04:57.706Z,98896.05
2019-01-30T11:06:02.712Z,98893.27
2019-01-30T11:07:07.953Z,98894.11
2019-01-30T11:08:13.026Z,98902.67
2019-01-30T11:09:18.207Z,98895.64
2019-01-30T11:10:23.418Z,98894.53
2019-01-30T11:11:28.705Z,98892.27
2019-01-30T11:12:33.682Z,98896.09
2019-01-30T11:13:38.706Z,98897.61
2019-01-30T11:14:43.723Z,98900.56
2019-01-30T11:15:48.678Z,98897.47
2019-01-30T11:16:53.642Z,98893.05
2019-01-30T11:17:59.629Z,98897.20
2019-01-30T11:19:05.123Z,98896.72
2019-01-30T11:20:11.684Z,98899.34
2019-01-30T11:21:16.716Z,98896.13
2019-01-30T11:22:21.764Z,98896.13
2019-01-30T11:23:27.049Z,98891.68
2019-01-30T11:24:32.090Z,98887.63
2019-01-30T11:25:38.267Z,98886.10
2019-01-30T11:26:43.272Z,98889.89
2019-01-30T11:27:48.602Z,98887.15
2019-01-30T11:28:53.850Z,98890.34
2019-01-30T11:29:58.897Z,98887.72
2019-01-30T11:31:04.029Z,98887.45
2019-01-30T11:32:08.992Z,98893.54
2019-01-30T11:33:14.260Z,98892.08
2019-01-30T11:34:19.417Z,98897.06
2019-01-30T11:35:24.500Z,98893.13
2019-01-30T11:36:29.728Z,98887.27
2019-01-30T11:37:34.803Z,98890.73
2019-01-30T11:38:40.072Z,98888.11
2019-01-30T11:39:45.144Z,98884.50
2019-01-30T11:40:50.258Z,98884.02
2019-01-30T11:41:55.252Z,98891.27
2019-01-30T11:43:00.481Z,98882.91
2019-01-30T11:44:07.016Z,98885.42
2019-01-30T11:45:17.938Z,98889.57
2019-01-30T11:46:24.040Z,98887.63
2019-01-30T11:47:28.983Z,98886.88
2019-01-30T11:48:34.541Z,98887.87
2019-01-30T11:49:39.531Z,98882.25
2019-01-30T11:50:44.516Z,98883.21
2019-01-30T11:51:49.731Z,98879.27
2019-01-30T11:52:54.824Z,98881.57
2019-01-30T11:53:59.783Z,98882.88
2019-01-30T11:55:06.592Z,98885.84
2019-01-30T11:56:11.973Z,98884.88
2019-01-30T11:57:17.350Z,98883.57
2019-01-30T11:58:22.333Z,98884.88
2019-01-30T11:59:27.751Z,98882.88
2019-01-30T12:00:46.192Z,98881.84
2019-01-30T12:01:51.200Z,98879.45
2019-01-30T12:02:56.792Z,98881.54
2019-01-30T12:04:01.802Z,98887.03
2019-01-30T12:05:09.171Z,98885.51
2019-01-30T12:06:14.546Z,98879.57
2019-01-30T12:07:19.516Z,98885.42
2019-01-30T12:08:24.708Z,98876.49
2019-01-30T12:09:29.778Z,98879.12
2019-01-30T12:10:35.034Z,98878.52
2019-01-30T12:11:40.300Z,98879.84
2019-01-30T12:12:45.752Z,98879.95
2019-01-30T12:13:50.796Z,98876.02
2019-01-30T12:14:55.725Z,98877.33
2019-01-30T12:16:00.750Z,98876.49
2019-01-30T12:17:05.662Z,98878.31
2019-01-30T12:18:11.040Z,98881.06
2019-01-30T12:19:16.223Z,98881.89
2019-01-30T12:20:21.280Z,98885.00
2019-01-30T12:21:26.376Z,98881.33
2019-01-30T12:22:31.468Z,98881.45
2019-01-30T12:23:36.463Z,98879.80
2019-01-30T12:24:41.370Z,98882.91
2019-01-30T12:25:46.467Z,98887.20
2019-01-30T12:26:51.520Z,98881.11
2019-01-30T12:27:56.640Z,98889.47
2019-01-30T12:29:01.623Z,98891.27
2019-01-30T12:30:11.918Z,98889.95
2019-01-30T12:31:17.071Z,98888.27
2019-01-30T12:34:10.718Z,98896.63
2019-01-30T12:35:16.115Z,98891.64
2019-01-30T12:36:21.046Z,98889.16
2019-01-30T12:37:26.409Z,98895.84
2019-01-30T12:38:32.411Z,98896.11
2019-01-30T12:39:37.749Z,98893.63
2019-01-30T12:40:43.071Z,98894.73
2019-01-30T12:41:48.072Z,98896.16
2019-01-30T12:42:53.394Z,98894.28
2019-01-30T12:43:58.458Z,98899.17
2019-01-30T12:45:03.779Z,98901.10
2019-01-30T12:46:08.745Z,98894.06
2019-01-30T12:47:20.076Z,98904.09
2019-01-30T12:48:21.879Z,98900.15
2019-01-30T12:49:27.220Z,98912.91